sensor_id;sensor_type;location;lat;lon;timestamp;temperature;humidity
53282;DHT22;39167;52.794;6.892;2022-11-20T00:00:27;-2.20;99.90
53282;DHT22;39167;52.794;6.892;2022-11-20T00:02:53;-2.20;99.90
53282;DHT22;39167;52.794;6.892;2022-11-20T00:05:18;-2.20;99.90
53282;DHT22;39167;52.794;6.892;2022-11-20T00:07:44;-2.20;99.90
53282;DHT22;39167;52.794;6.892;2022-11-20T00:10:10;-2.20;99.90
53282;DHT22;39167;52.794;6.892;2022-11-20T00:12:36;-2.20;99.90
53282;DHT22;39167;52.794;6.892;2022-11-20T00:15:02;-2.10;99.90
53282;DHT22;39167;52.794;6.892;2022-11-20T00:17:27;-2.10;99.90
53282;DHT22;39167;52.794;6.892;2022-11-20T00:19:53;-1.90;99.90
53282;DHT22;39167;52.794;6.892;2022-11-20T00:22:19;-2.20;99.90
53282;DHT22;39167;52.794;6.892;2022-11-20T00:24:44;-2.30;99.90
53282;DHT22;39167;52.794;6.892;2022-11-20T00:27:10;-2.30;99.90
53282;DHT22;39167;52.794;6.892;2022-11-20T00:29:36;-2.30;99.90
53282;DHT22;39167;52.794;6.892;2022-11-20T00:32:01;-2.30;99.90
53282;DHT22;39167;52.794;6.892;2022-11-20T00:34:27;-2.30;99.90
53282;DHT22;39167;52.794;6.892;2022-11-20T00:36:53;-2.20;99.90
53282;DHT22;39167;52.794;6.892;2022-11-20T00:39:18;-2.30;99.90
53282;DHT22;39167;52.794;6.892;2022-11-20T00:41:44;-2.20;99.90
53282;DHT22;39167;52.794;6.892;2022-11-20T00:44:10;-2.20;99.90
53282;DHT22;39167;52.794;6.892;2022-11-20T00:46:35;-1.80;99.90
53282;DHT22;39167;52.794;6.892;2022-11-20T00:49:01;-2.10;99.90
53282;DHT22;39167;52.794;6.892;2022-11-20T00:51:27;-2.10;99.90
53282;DHT22;39167;52.794;6.892;2022-11-20T00:53:55;-2.00;99.90
53282;DHT22;39167;52.794;6.892;2022-11-20T00:56:21;-2.00;99.90
53282;DHT22;39167;52.794;6.892;2022-11-20T00:58:48;-2.00;99.90
53282;DHT22;39167;52.794;6.892;2022-11-20T01:01:17;-2.00;99.90
53282;DHT22;39167;52.794;6.892;2022-11-20T01:03:45;-1.40;99.90
53282;DHT22;39167;52.794;6.892;2022-11-20T01:08:37;-1.90;99.90
53282;DHT22;39167;52.794;6.892;2022-11-20T01:11:09;-1.90;99.90
53282;DHT22;39167;52.794;6.892;2022-11-20T01:13:36;-1.90;99.90
53282;DHT22;39167;52.794;6.892;2022-11-20T01:18:37;-1.80;99.90
53282;DHT22;39167;52.794;6.892;2022-11-20T01:21:09;-1.80;99.90
53282;DHT22;39167;52.794;6.892;2022-11-20T01:23:37;-1.80;99.90
53282;DHT22;39167;52.794;6.892;2022-11-20T01:26:06;-1.80;99.90
53282;DHT22;39167;52.794;6.892;2022-11-20T01:28:32;-1.80;99.90
53282;DHT22;39167;52.794;6.892;2022-11-20T01:30:58;-1.80;99.90
53282;DHT22;39167;52.794;6.892;2022-11-20T01:33:24;-1.80;99.90
53282;DHT22;39167;52.794;6.892;2022-11-20T01:35:50;-1.70;99.90
53282;DHT22;39167;52.794;6.892;2022-11-20T01:38:16;-1.70;99.90
53282;DHT22;39167;52.794;6.892;2022-11-20T01:40:42;-1.70;99.90
53282;DHT22;39167;52.794;6.892;2022-11-20T01:43:17;-1.70;99.90
53282;DHT22;39167;52.794;6.892;2022-11-20T01:46:17;-1.70;99.90
53282;DHT22;39167;52.794;6.892;2022-11-20T01:48:57;-1.60;99.90
53282;DHT22;39167;52.794;6.892;2022-11-20T01:51:47;-1.60;99.90
53282;DHT22;39167;52.794;6.892;2022-11-20T01:54:20;-1.70;99.90
53282;DHT22;39167;52.794;6.892;2022-11-20T01:56:48;-1.60;99.90
53282;DHT22;39167;52.794;6.892;2022-11-20T01:59:18;-1.70;99.90
53282;DHT22;39167;52.794;6.892;2022-11-20T02:01:45;-1.60;99.90
53282;DHT22;39167;52.794;6.892;2022-11-20T02:04:11;-1.60;99.90
53282;DHT22;39167;52.794;6.892;2022-11-20T02:06:49;-1.60;99.90
53282;DHT22;39167;52.794;6.892;2022-11-20T02:09:16;-1.60;99.90
53282;DHT22;39167;52.794;6.892;2022-11-20T02:11:42;-1.70;99.90
53282;DHT22;39167;52.794;6.892;2022-11-20T02:14:08;-1.60;99.90
53282;DHT22;39167;52.794;6.892;2022-11-20T02:16:37;-1.60;99.90
53282;DHT22;39167;52.794;6.892;2022-11-20T02:19:09;-1.60;99.90
53282;DHT22;39167;52.794;6.892;2022-11-20T02:22:14;-1.60;99.90
53282;DHT22;39167;52.794;6.892;2022-11-20T02:24:33;-1.60;99.90
53282;DHT22;39167;52.794;6.892;2022-11-20T02:27:10;-1.50;99.90
53282;DHT22;39167;52.794;6.892;2022-11-20T02:29:45;-1.50;99.90
53282;DHT22;39167;52.794;6.892;2022-11-20T02:32:38;-1.50;99.90
53282;DHT22;39167;52.794;6.892;2022-11-20T02:37:48;-1.50;99.90
53282;DHT22;39167;52.794;6.892;2022-11-20T02:40:15;-1.40;99.90
53282;DHT22;39167;52.794;6.892;2022-11-20T02:42:41;-1.50;99.90
53282;DHT22;39167;52.794;6.892;2022-11-20T02:45:07;-0.70;99.90
53282;DHT22;39167;52.794;6.892;2022-11-20T02:47:33;-1.40;99.90
53282;DHT22;39167;52.794;6.892;2022-11-20T02:49:59;-1.40;99.90
53282;DHT22;39167;52.794;6.892;2022-11-20T02:52:25;-1.40;99.90
53282;DHT22;39167;52.794;6.892;2022-11-20T02:54:51;-1.20;99.90
53282;DHT22;39167;52.794;6.892;2022-11-20T02:57:16;-1.40;99.90
53282;DHT22;39167;52.794;6.892;2022-11-20T02:59:42;-1.40;99.90
53282;DHT22;39167;52.794;6.892;2022-11-20T03:02:08;-1.30;99.90
53282;DHT22;39167;52.794;6.892;2022-11-20T03:04:34;-0.90;99.90
53282;DHT22;39167;52.794;6.892;2022-11-20T03:06:59;-1.40;99.90
53282;DHT22;39167;52.794;6.892;2022-11-20T03:09:25;-0.80;99.90
53282;DHT22;39167;52.794;6.892;2022-11-20T03:11:51;-1.30;99.90
53282;DHT22;39167;52.794;6.892;2022-11-20T03:14:16;-1.40;99.90
53282;DHT22;39167;52.794;6.892;2022-11-20T03:16:42;-1.30;99.90
53282;DHT22;39167;52.794;6.892;2022-11-20T03:19:08;-0.80;99.90
53282;DHT22;39167;52.794;6.892;2022-11-20T03:21:34;-1.30;99.90
53282;DHT22;39167;52.794;6.892;2022-11-20T03:24:01;-1.30;99.90
53282;DHT22;39167;52.794;6.892;2022-11-20T03:26:27;-0.80;99.90
53282;DHT22;39167;52.794;6.892;2022-11-20T03:28:55;-1.30;99.90
53282;DHT22;39167;52.794;6.892;2022-11-20T03:31:27;-1.30;99.90
53282;DHT22;39167;52.794;6.892;2022-11-20T03:33:53;-1.30;99.90
53282;DHT22;39167;52.794;6.892;2022-11-20T03:36:19;-1.20;99.90
53282;DHT22;39167;52.794;6.892;2022-11-20T03:38:45;-1.20;99.90
53282;DHT22;39167;52.794;6.892;2022-11-20T03:41:17;-1.20;99.90
53282;DHT22;39167;52.794;6.892;2022-11-20T03:43:51;-1.20;99.90
53282;DHT22;39167;52.794;6.892;2022-11-20T03:46:17;-1.20;99.90
53282;DHT22;39167;52.794;6.892;2022-11-20T03:48:43;-1.20;99.90
53282;DHT22;39167;52.794;6.892;2022-11-20T03:51:11;-1.20;99.90
53282;DHT22;39167;52.794;6.892;2022-11-20T03:53:37;-1.20;99.90
53282;DHT22;39167;52.794;6.892;2022-11-20T03:56:04;-1.20;99.90
53282;DHT22;39167;52.794;6.892;2022-11-20T03:58:30;-1.20;99.90
53282;DHT22;39167;52.794;6.892;2022-11-20T04:00:55;-1.20;99.90
53282;DHT22;39167;52.794;6.892;2022-11-20T04:03:21;-1.20;99.90
53282;DHT22;39167;52.794;6.892;2022-11-20T04:05:47;-1.20;99.90
53282;DHT22;39167;52.794;6.892;2022-11-20T04:08:12;-1.20;99.90
53282;DHT22;39167;52.794;6.892;2022-11-20T04:10:38;-1.20;99.90
53282;DHT22;39167;52.794;6.892;2022-11-20T04:13:04;-1.20;99.90
53282;DHT22;39167;52.794;6.892;2022-11-20T04:15:29;-1.10;99.90
53282;DHT22;39167;52.794;6.892;2022-11-20T04:17:55;-1.10;99.90
53282;DHT22;39167;52.794;6.892;2022-11-20T04:20:21;-1.10;99.90
53282;DHT22;39167;52.794;6.892;2022-11-20T04:22:47;-1.10;99.90
53282;DHT22;39167;52.794;6.892;2022-11-20T04:25:12;-1.10;99.90
53282;DHT22;39167;52.794;6.892;2022-11-20T04:27:38;-1.10;99.90
53282;DHT22;39167;52.794;6.892;2022-11-20T04:30:04;-1.10;99.90
53282;DHT22;39167;52.794;6.892;2022-11-20T04:32:30;-1.10;99.90
53282;DHT22;39167;52.794;6.892;2022-11-20T04:34:55;-1.20;99.90
53282;DHT22;39167;52.794;6.892;2022-11-20T04:37:21;-1.10;99.90
53282;DHT22;39167;52.794;6.892;2022-11-20T04:39:47;-1.10;99.90
53282;DHT22;39167;52.794;6.892;2022-11-20T04:42:12;-1.10;99.90
53282;DHT22;39167;52.794;6.892;2022-11-20T04:45:10;-1.10;99.90
53282;DHT22;39167;52.794;6.892;2022-11-20T04:47:36;-1.10;99.90
53282;DHT22;39167;52.794;6.892;2022-11-20T04:50:02;-1.00;99.90
53282;DHT22;39167;52.794;6.892;2022-11-20T04:52:27;-1.00;99.90
53282;DHT22;39167;52.794;6.892;2022-11-20T04:54:53;-1.00;99.90
53282;DHT22;39167;52.794;6.892;2022-11-20T04:57:19;-1.00;99.90
53282;DHT22;39167;52.794;6.892;2022-11-20T04:59:45;-1.00;99.90
53282;DHT22;39167;52.794;6.892;2022-11-20T05:02:11;-1.00;99.90
53282;DHT22;39167;52.794;6.892;2022-11-20T05:04:36;-1.00;99.90
53282;DHT22;39167;52.794;6.892;2022-11-20T05:07:02;-1.00;99.90
53282;DHT22;39167;52.794;6.892;2022-11-20T05:09:28;-1.00;99.90
53282;DHT22;39167;52.794;6.892;2022-11-20T05:11:54;-1.00;99.90
53282;DHT22;39167;52.794;6.892;2022-11-20T05:14:19;-1.00;99.90
53282;DHT22;39167;52.794;6.892;2022-11-20T05:16:45;-1.00;99.90
53282;DHT22;39167;52.794;6.892;2022-11-20T05:19:11;-0.90;99.90
53282;DHT22;39167;52.794;6.892;2022-11-20T05:21:36;-0.90;99.90
53282;DHT22;39167;52.794;6.892;2022-11-20T05:24:02;-1.00;99.90
53282;DHT22;39167;52.794;6.892;2022-11-20T05:26:28;-0.90;99.90
53282;DHT22;39167;52.794;6.892;2022-11-20T05:28:53;-0.90;99.90
53282;DHT22;39167;52.794;6.892;2022-11-20T05:31:24;-0.90;99.90
53282;DHT22;39167;52.794;6.892;2022-11-20T05:33:50;-0.90;99.90
53282;DHT22;39167;52.794;6.892;2022-11-20T05:36:15;-0.90;99.90
53282;DHT22;39167;52.794;6.892;2022-11-20T05:38:42;-0.90;99.90
53282;DHT22;39167;52.794;6.892;2022-11-20T05:41:13;-0.90;99.90
53282;DHT22;39167;52.794;6.892;2022-11-20T05:43:40;-0.90;99.90
53282;DHT22;39167;52.794;6.892;2022-11-20T05:46:07;-0.90;99.90
53282;DHT22;39167;52.794;6.892;2022-11-20T05:48:34;-0.90;99.90
53282;DHT22;39167;52.794;6.892;2022-11-20T05:51:02;-0.90;99.90
53282;DHT22;39167;52.794;6.892;2022-11-20T05:53:28;-0.70;99.90
53282;DHT22;39167;52.794;6.892;2022-11-20T05:56:01;-0.90;99.90
53282;DHT22;39167;52.794;6.892;2022-11-20T05:58:27;-0.90;99.90
53282;DHT22;39167;52.794;6.892;2022-11-20T06:00:53;-0.90;99.90
53282;DHT22;39167;52.794;6.892;2022-11-20T06:03:20;-0.90;99.90
53282;DHT22;39167;52.794;6.892;2022-11-20T06:05:46;-0.90;99.90
53282;DHT22;39167;52.794;6.892;2022-11-20T06:08:12;-0.90;99.90
53282;DHT22;39167;52.794;6.892;2022-11-20T06:10:37;-0.80;99.90
53282;DHT22;39167;52.794;6.892;2022-11-20T06:13:03;-0.30;99.90
53282;DHT22;39167;52.794;6.892;2022-11-20T06:15:29;-0.80;99.90
53282;DHT22;39167;52.794;6.892;2022-11-20T06:17:55;-0.80;99.90
53282;DHT22;39167;52.794;6.892;2022-11-20T06:20:21;-0.80;99.90
53282;DHT22;39167;52.794;6.892;2022-11-20T06:22:47;-0.80;99.90
53282;DHT22;39167;52.794;6.892;2022-11-20T06:25:13;-0.10;99.90
53282;DHT22;39167;52.794;6.892;2022-11-20T06:27:39;-0.40;99.90
53282;DHT22;39167;52.794;6.892;2022-11-20T06:30:05;-0.80;99.90
53282;DHT22;39167;52.794;6.892;2022-11-20T06:32:31;-0.80;99.90
53282;DHT22;39167;52.794;6.892;2022-11-20T06:34:56;-0.80;99.90
53282;DHT22;39167;52.794;6.892;2022-11-20T06:37:22;-0.50;99.90
53282;DHT22;39167;52.794;6.892;2022-11-20T06:39:47;-0.80;99.90
53282;DHT22;39167;52.794;6.892;2022-11-20T06:42:13;-0.80;99.90
53282;DHT22;39167;52.794;6.892;2022-11-20T06:44:39;-0.80;99.90
53282;DHT22;39167;52.794;6.892;2022-11-20T06:47:04;-0.80;99.90
53282;DHT22;39167;52.794;6.892;2022-11-20T06:49:30;-0.80;99.90
53282;DHT22;39167;52.794;6.892;2022-11-20T06:51:56;-0.60;99.90
53282;DHT22;39167;52.794;6.892;2022-11-20T06:54:21;-0.50;99.90
53282;DHT22;39167;52.794;6.892;2022-11-20T06:56:47;-0.80;99.90
53282;DHT22;39167;52.794;6.892;2022-11-20T06:59:13;-0.80;99.90
53282;DHT22;39167;52.794;6.892;2022-11-20T07:01:39;-0.80;99.90
53282;DHT22;39167;52.794;6.892;2022-11-20T07:04:04;0.00;99.90
53282;DHT22;39167;52.794;6.892;2022-11-20T07:06:30;-0.80;99.90
53282;DHT22;39167;52.794;6.892;2022-11-20T07:08:56;-0.80;99.90
53282;DHT22;39167;52.794;6.892;2022-11-20T07:11:22;-0.80;99.90
53282;DHT22;39167;52.794;6.892;2022-11-20T07:13:48;-0.80;99.90
53282;DHT22;39167;52.794;6.892;2022-11-20T07:16:14;-0.80;99.90
53282;DHT22;39167;52.794;6.892;2022-11-20T07:18:40;-0.80;99.90
53282;DHT22;39167;52.794;6.892;2022-11-20T07:21:08;-0.80;99.90
53282;DHT22;39167;52.794;6.892;2022-11-20T07:23:34;-0.80;99.90
53282;DHT22;39167;52.794;6.892;2022-11-20T07:26:07;-0.80;99.90
53282;DHT22;39167;52.794;6.892;2022-11-20T07:28:33;-0.70;99.90
53282;DHT22;39167;52.794;6.892;2022-11-20T07:30:59;-0.70;99.90
53282;DHT22;39167;52.794;6.892;2022-11-20T07:33:25;-0.70;99.90
53282;DHT22;39167;52.794;6.892;2022-11-20T07:35:51;-0.80;99.90
53282;DHT22;39167;52.794;6.892;2022-11-20T07:38:17;-0.80;99.90
53282;DHT22;39167;52.794;6.892;2022-11-20T07:40:42;-0.70;99.90
53282;DHT22;39167;52.794;6.892;2022-11-20T07:43:08;-0.70;99.90
53282;DHT22;39167;52.794;6.892;2022-11-20T07:45:34;-0.70;99.90
53282;DHT22;39167;52.794;6.892;2022-11-20T07:47:59;-0.80;99.90
53282;DHT22;39167;52.794;6.892;2022-11-20T07:50:25;-0.80;99.90
53282;DHT22;39167;52.794;6.892;2022-11-20T07:52:51;-0.80;99.90
53282;DHT22;39167;52.794;6.892;2022-11-20T07:55:17;-0.70;99.90
53282;DHT22;39167;52.794;6.892;2022-11-20T07:57:43;-0.70;99.90
53282;DHT22;39167;52.794;6.892;2022-11-20T08:00:10;-0.70;99.90
53282;DHT22;39167;52.794;6.892;2022-11-20T08:02:37;-0.70;99.90
53282;DHT22;39167;52.794;6.892;2022-11-20T08:05:04;-0.70;99.90
53282;DHT22;39167;52.794;6.892;2022-11-20T08:07:44;-0.70;99.90
53282;DHT22;39167;52.794;6.892;2022-11-20T08:10:12;-0.60;99.90
53282;DHT22;39167;52.794;6.892;2022-11-20T08:12:49;-0.40;99.90
53282;DHT22;39167;52.794;6.892;2022-11-20T08:15:35;-0.70;99.90
53282;DHT22;39167;52.794;6.892;2022-11-20T08:18:05;-0.70;99.90
53282;DHT22;39167;52.794;6.892;2022-11-20T08:20:31;-0.70;99.90
53282;DHT22;39167;52.794;6.892;2022-11-20T08:23:04;-0.70;99.90
53282;DHT22;39167;52.794;6.892;2022-11-20T08:25:32;-0.70;99.90
53282;DHT22;39167;52.794;6.892;2022-11-20T08:28:00;-0.70;99.90
53282;DHT22;39167;52.794;6.892;2022-11-20T08:30:26;-0.70;99.90
53282;DHT22;39167;52.794;6.892;2022-11-20T08:32:52;-0.60;99.90
53282;DHT22;39167;52.794;6.892;2022-11-20T08:35:19;-0.60;99.90
53282;DHT22;39167;52.794;6.892;2022-11-20T08:37:48;-0.60;99.90
53282;DHT22;39167;52.794;6.892;2022-11-20T08:40:14;-0.60;99.90
53282;DHT22;39167;52.794;6.892;2022-11-20T08:42:50;-0.60;99.90
53282;DHT22;39167;52.794;6.892;2022-11-20T08:45:17;-0.60;99.90
53282;DHT22;39167;52.794;6.892;2022-11-20T08:47:43;-0.60;99.90
53282;DHT22;39167;52.794;6.892;2022-11-20T08:50:11;-0.60;99.90
53282;DHT22;39167;52.794;6.892;2022-11-20T08:52:38;-0.60;99.90
53282;DHT22;39167;52.794;6.892;2022-11-20T08:55:04;-0.40;99.90
53282;DHT22;39167;52.794;6.892;2022-11-20T08:57:34;-0.50;99.90
53282;DHT22;39167;52.794;6.892;2022-11-20T09:00:01;-0.50;99.90
53282;DHT22;39167;52.794;6.892;2022-11-20T09:02:27;-0.50;99.90
53282;DHT22;39167;52.794;6.892;2022-11-20T09:04:52;-0.50;99.90
53282;DHT22;39167;52.794;6.892;2022-11-20T09:07:21;-0.50;99.90
53282;DHT22;39167;52.794;6.892;2022-11-20T09:09:46;-0.40;99.90
53282;DHT22;39167;52.794;6.892;2022-11-20T09:12:13;-0.40;99.90
53282;DHT22;39167;52.794;6.892;2022-11-20T09:14:39;0.00;99.90
53282;DHT22;39167;52.794;6.892;2022-11-20T09:17:05;-0.40;99.90
53282;DHT22;39167;52.794;6.892;2022-11-20T09:19:33;-0.40;99.90
53282;DHT22;39167;52.794;6.892;2022-11-20T09:21:59;0.00;99.90
53282;DHT22;39167;52.794;6.892;2022-11-20T09:24:26;-0.30;99.90
53282;DHT22;39167;52.794;6.892;2022-11-20T09:26:52;-0.30;99.90
53282;DHT22;39167;52.794;6.892;2022-11-20T09:29:17;-0.30;99.90
53282;DHT22;39167;52.794;6.892;2022-11-20T09:31:44;-0.20;99.90
53282;DHT22;39167;52.794;6.892;2022-11-20T09:34:09;0.00;99.90
53282;DHT22;39167;52.794;6.892;2022-11-20T09:36:35;-0.20;99.90
53282;DHT22;39167;52.794;6.892;2022-11-20T09:39:01;-0.10;99.90
53282;DHT22;39167;52.794;6.892;2022-11-20T09:41:58;-0.10;99.90
53282;DHT22;39167;52.794;6.892;2022-11-20T09:44:45;-0.10;99.90
53282;DHT22;39167;52.794;6.892;2022-11-20T09:47:53;0.00;99.90
53282;DHT22;39167;52.794;6.892;2022-11-20T09:50:36;0.00;99.90
53282;DHT22;39167;52.794;6.892;2022-11-20T09:53:12;0.00;99.90
53282;DHT22;39167;52.794;6.892;2022-11-20T09:55:39;0.10;99.90
53282;DHT22;39167;52.794;6.892;2022-11-20T09:58:35;0.10;99.90
53282;DHT22;39167;52.794;6.892;2022-11-20T10:01:13;0.10;99.90
53282;DHT22;39167;52.794;6.892;2022-11-20T10:06:17;0.10;99.90
53282;DHT22;39167;52.794;6.892;2022-11-20T10:08:51;0.70;99.90
53282;DHT22;39167;52.794;6.892;2022-11-20T10:12:00;0.20;99.90
53282;DHT22;39167;52.794;6.892;2022-11-20T10:15:10;0.20;99.90
53282;DHT22;39167;52.794;6.892;2022-11-20T10:20:50;0.30;99.90
53282;DHT22;39167;52.794;6.892;2022-11-20T10:26:31;0.30;99.90
53282;DHT22;39167;52.794;6.892;2022-11-20T10:29:17;0.40;99.90
53282;DHT22;39167;52.794;6.892;2022-11-20T10:32:28;0.40;99.90
53282;DHT22;39167;52.794;6.892;2022-11-20T10:37:29;0.50;99.90
53282;DHT22;39167;52.794;6.892;2022-11-20T10:43:04;0.60;99.90
53282;DHT22;39167;52.794;6.892;2022-11-20T10:48:22;0.60;99.90
53282;DHT22;39167;52.794;6.892;2022-11-20T10:51:15;0.70;99.90
53282;DHT22;39167;52.794;6.892;2022-11-20T10:56:38;0.80;99.90
53282;DHT22;39167;52.794;6.892;2022-11-20T10:59:32;0.80;99.90
53282;DHT22;39167;52.794;6.892;2022-11-20T11:02:01;0.90;99.90
53282;DHT22;39167;52.794;6.892;2022-11-20T11:06:56;1.00;99.90
53282;DHT22;39167;52.794;6.892;2022-11-20T11:09:34;1.00;99.90
53282;DHT22;39167;52.794;6.892;2022-11-20T11:12:01;1.00;99.90
53282;DHT22;39167;52.794;6.892;2022-11-20T11:14:42;1.00;99.90
53282;DHT22;39167;52.794;6.892;2022-11-20T11:17:31;1.70;99.90
53282;DHT22;39167;52.794;6.892;2022-11-20T11:22:23;1.10;99.90
53282;DHT22;39167;52.794;6.892;2022-11-20T11:24:52;1.30;99.90
53282;DHT22;39167;52.794;6.892;2022-11-20T11:27:18;1.60;99.90
53282;DHT22;39167;52.794;6.892;2022-11-20T11:29:45;1.10;99.90
53282;DHT22;39167;52.794;6.892;2022-11-20T11:32:20;1.10;99.90
53282;DHT22;39167;52.794;6.892;2022-11-20T11:35:04;1.20;99.90
53282;DHT22;39167;52.794;6.892;2022-11-20T11:37:36;1.20;99.90
53282;DHT22;39167;52.794;6.892;2022-11-20T11:40:04;1.20;99.90
53282;DHT22;39167;52.794;6.892;2022-11-20T11:42:30;1.20;99.90
53282;DHT22;39167;52.794;6.892;2022-11-20T11:44:58;1.30;99.90
53282;DHT22;39167;52.794;6.892;2022-11-20T11:47:37;1.30;99.90
53282;DHT22;39167;52.794;6.892;2022-11-20T11:53:12;1.30;99.90
53282;DHT22;39167;52.794;6.892;2022-11-20T11:58:30;1.30;99.90
53282;DHT22;39167;52.794;6.892;2022-11-20T12:01:04;1.40;99.90
53282;DHT22;39167;52.794;6.892;2022-11-20T12:03:39;1.40;99.90
53282;DHT22;39167;52.794;6.892;2022-11-20T12:06:16;1.60;99.90
53282;DHT22;39167;52.794;6.892;2022-11-20T12:08:59;1.50;99.90
53282;DHT22;39167;52.794;6.892;2022-11-20T12:14:03;1.40;99.90
53282;DHT22;39167;52.794;6.892;2022-11-20T12:16:36;1.50;99.90
53282;DHT22;39167;52.794;6.892;2022-11-20T12:19:11;1.50;99.90
53282;DHT22;39167;52.794;6.892;2022-11-20T12:21:43;1.60;99.90
53282;DHT22;39167;52.794;6.892;2022-11-20T12:24:42;1.70;99.90
53282;DHT22;39167;52.794;6.892;2022-11-20T12:30:14;1.90;99.90
53282;DHT22;39167;52.794;6.892;2022-11-20T12:35:17;2.10;99.90
53282;DHT22;39167;52.794;6.892;2022-11-20T12:47:24;2.20;99.90
53282;DHT22;39167;52.794;6.892;2022-11-20T12:52:53;2.10;99.90
53282;DHT22;39167;52.794;6.892;2022-11-20T12:55:33;2.10;99.90
53282;DHT22;39167;52.794;6.892;2022-11-20T12:58:12;2.10;99.90
53282;DHT22;39167;52.794;6.892;2022-11-20T13:00:54;2.10;99.90
53282;DHT22;39167;52.794;6.892;2022-11-20T13:03:44;2.10;99.90
53282;DHT22;39167;52.794;6.892;2022-11-20T13:06:17;2.10;99.90
53282;DHT22;39167;52.794;6.892;2022-11-20T13:08:50;2.10;99.90
53282;DHT22;39167;52.794;6.892;2022-11-20T13:11:37;2.10;99.90
53282;DHT22;39167;52.794;6.892;2022-11-20T13:19:25;2.50;99.90
53282;DHT22;39167;52.794;6.892;2022-11-20T13:21:51;2.10;99.90
53282;DHT22;39167;52.794;6.892;2022-11-20T13:29:37;2.00;99.90
53282;DHT22;39167;52.794;6.892;2022-11-20T13:32:14;2.00;99.90
53282;DHT22;39167;52.794;6.892;2022-11-20T13:35:02;2.00;99.90
53282;DHT22;39167;52.794;6.892;2022-11-20T13:37:38;2.00;99.90
53282;DHT22;39167;52.794;6.892;2022-11-20T13:45:29;2.10;99.90
53282;DHT22;39167;52.794;6.892;2022-11-20T13:47:56;2.10;99.90
53282;DHT22;39167;52.794;6.892;2022-11-20T13:50:40;2.10;99.90
53282;DHT22;39167;52.794;6.892;2022-11-20T13:53:25;2.10;99.90
53282;DHT22;39167;52.794;6.892;2022-11-20T13:59:02;2.10;99.90
53282;DHT22;39167;52.794;6.892;2022-11-20T14:01:32;2.00;99.90
53282;DHT22;39167;52.794;6.892;2022-11-20T14:03:58;2.20;99.90
53282;DHT22;39167;52.794;6.892;2022-11-20T14:06:33;2.00;99.90
53282;DHT22;39167;52.794;6.892;2022-11-20T14:09:00;2.10;99.90
53282;DHT22;39167;52.794;6.892;2022-11-20T14:11:28;2.00;99.90
53282;DHT22;39167;52.794;6.892;2022-11-20T14:14:12;1.90;99.90
53282;DHT22;39167;52.794;6.892;2022-11-20T14:16:39;1.90;99.90
53282;DHT22;39167;52.794;6.892;2022-11-20T14:21:53;1.90;99.90
53282;DHT22;39167;52.794;6.892;2022-11-20T14:24:21;1.90;99.90
53282;DHT22;39167;52.794;6.892;2022-11-20T14:26:47;1.90;99.90
53282;DHT22;39167;52.794;6.892;2022-11-20T14:29:21;1.90;99.90
53282;DHT22;39167;52.794;6.892;2022-11-20T14:31:52;1.90;99.90
53282;DHT22;39167;52.794;6.892;2022-11-20T14:34:22;1.90;99.90
53282;DHT22;39167;52.794;6.892;2022-11-20T14:36:53;1.90;99.90
53282;DHT22;39167;52.794;6.892;2022-11-20T14:41:57;1.80;99.90
53282;DHT22;39167;52.794;6.892;2022-11-20T14:44:35;1.80;99.90
53282;DHT22;39167;52.794;6.892;2022-11-20T14:47:03;1.90;99.90
53282;DHT22;39167;52.794;6.892;2022-11-20T14:49:30;1.80;99.90
53282;DHT22;39167;52.794;6.892;2022-11-20T14:52:01;1.80;99.90
53282;DHT22;39167;52.794;6.892;2022-11-20T14:54:27;1.80;99.90
53282;DHT22;39167;52.794;6.892;2022-11-20T14:59:29;1.70;99.90
53282;DHT22;39167;52.794;6.892;2022-11-20T15:02:11;1.70;99.90
53282;DHT22;39167;52.794;6.892;2022-11-20T15:04:49;1.70;99.90
53282;DHT22;39167;52.794;6.892;2022-11-20T15:07:29;1.70;99.90
53282;DHT22;39167;52.794;6.892;2022-11-20T15:10:03;1.70;99.90
53282;DHT22;39167;52.794;6.892;2022-11-20T15:12:31;1.70;99.90
53282;DHT22;39167;52.794;6.892;2022-11-20T15:14:58;2.30;99.90
53282;DHT22;39167;52.794;6.892;2022-11-20T15:17:25;1.60;99.90
53282;DHT22;39167;52.794;6.892;2022-11-20T15:19:52;1.60;99.90
53282;DHT22;39167;52.794;6.892;2022-11-20T15:22:17;1.60;99.90
53282;DHT22;39167;52.794;6.892;2022-11-20T15:24:43;1.60;99.90
53282;DHT22;39167;52.794;6.892;2022-11-20T15:27:09;1.60;99.90
53282;DHT22;39167;52.794;6.892;2022-11-20T15:29:35;1.60;99.90
53282;DHT22;39167;52.794;6.892;2022-11-20T15:32:01;1.60;99.90
53282;DHT22;39167;52.794;6.892;2022-11-20T15:34:27;1.60;99.90
53282;DHT22;39167;52.794;6.892;2022-11-20T15:36:53;1.50;99.90
53282;DHT22;39167;52.794;6.892;2022-11-20T15:39:20;1.50;99.90
53282;DHT22;39167;52.794;6.892;2022-11-20T15:41:46;1.50;99.90
53282;DHT22;39167;52.794;6.892;2022-11-20T15:44:12;1.50;99.90
53282;DHT22;39167;52.794;6.892;2022-11-20T15:46:40;2.00;99.90
53282;DHT22;39167;52.794;6.892;2022-11-20T15:49:16;1.90;99.90
53282;DHT22;39167;52.794;6.892;2022-11-20T15:51:46;2.20;99.90
53282;DHT22;39167;52.794;6.892;2022-11-20T15:54:18;1.50;99.90
53282;DHT22;39167;52.794;6.892;2022-11-20T15:56:46;1.50;99.90
53282;DHT22;39167;52.794;6.892;2022-11-20T15:59:12;1.50;99.90
53282;DHT22;39167;52.794;6.892;2022-11-20T16:01:40;1.50;99.90
53282;DHT22;39167;52.794;6.892;2022-11-20T16:04:16;1.40;99.90
53282;DHT22;39167;52.794;6.892;2022-11-20T16:06:42;1.40;99.90
53282;DHT22;39167;52.794;6.892;2022-11-20T16:09:08;1.90;99.90
53282;DHT22;39167;52.794;6.892;2022-11-20T16:11:34;1.40;99.90
53282;DHT22;39167;52.794;6.892;2022-11-20T16:14:02;1.90;99.90
53282;DHT22;39167;52.794;6.892;2022-11-20T16:16:47;1.40;99.90
53282;DHT22;39167;52.794;6.892;2022-11-20T16:19:13;2.00;99.90
53282;DHT22;39167;52.794;6.892;2022-11-20T16:21:40;1.30;99.90
53282;DHT22;39167;52.794;6.892;2022-11-20T16:24:09;1.50;99.90
53282;DHT22;39167;52.794;6.892;2022-11-20T16:26:36;1.30;99.90
53282;DHT22;39167;52.794;6.892;2022-11-20T16:29:03;1.90;99.90
53282;DHT22;39167;52.794;6.892;2022-11-20T16:31:30;1.70;99.90
53282;DHT22;39167;52.794;6.892;2022-11-20T16:33:58;1.30;99.90
53282;DHT22;39167;52.794;6.892;2022-11-20T16:36:26;1.40;99.90
53282;DHT22;39167;52.794;6.892;2022-11-20T16:38:58;1.40;99.90
53282;DHT22;39167;52.794;6.892;2022-11-20T16:41:25;1.30;99.90
53282;DHT22;39167;52.794;6.892;2022-11-20T16:43:53;1.30;99.90
53282;DHT22;39167;52.794;6.892;2022-11-20T16:46:23;1.20;99.90
53282;DHT22;39167;52.794;6.892;2022-11-20T16:49:03;1.30;99.90
53282;DHT22;39167;52.794;6.892;2022-11-20T16:51:31;1.50;99.90
53282;DHT22;39167;52.794;6.892;2022-11-20T16:54:01;1.20;99.90
53282;DHT22;39167;52.794;6.892;2022-11-20T16:56:27;1.60;99.90
53282;DHT22;39167;52.794;6.892;2022-11-20T16:58:55;1.20;99.90
53282;DHT22;39167;52.794;6.892;2022-11-20T17:01:22;1.20;99.90
53282;DHT22;39167;52.794;6.892;2022-11-20T17:04:05;1.20;99.90
53282;DHT22;39167;52.794;6.892;2022-11-20T17:06:33;1.70;99.90
53282;DHT22;39167;52.794;6.892;2022-11-20T17:09:00;1.50;99.90
53282;DHT22;39167;52.794;6.892;2022-11-20T17:11:26;1.20;99.90
53282;DHT22;39167;52.794;6.892;2022-11-20T17:13:54;1.20;99.90
53282;DHT22;39167;52.794;6.892;2022-11-20T17:16:22;1.20;99.90
53282;DHT22;39167;52.794;6.892;2022-11-20T17:18:48;1.20;99.90